sensor_id;sensor_type;location;lat;lon;timestamp;P1;durP1;ratioP1;P2;durP2;ratioP2
42092;SDS011;28974;50.316;18.960;2023-05-10T00:01:06;21.52;;;8.63;;
42092;SDS011;28974;50.316;18.960;2023-05-10T00:13:07;20.35;;;9.02;;
42092;SDS011;28974;50.316;18.960;2023-05-10T00:25:08;20.55;;;8.95;;
42092;SDS011;28974;50.316;18.960;2023-05-10T00:37:09;21.63;;;8.90;;
42092;SDS011;28974;50.316;18.960;2023-05-10T00:49:09;23.05;;;8.45;;
42092;SDS011;28974;50.316;18.960;2023-05-10T01:01:09;24.48;;;8.85;;
42092;SDS011;28974;50.316;18.960;2023-05-10T01:13:11;25.48;;;9.85;;
42092;SDS011;28974;50.316;18.960;2023-05-10T01:37:38;15.45;;;9.20;;
42092;SDS011;28974;50.316;18.960;2023-05-10T01:49:49;30.80;;;10.02;;
42092;SDS011;28974;50.316;18.960;2023-05-10T02:01:50;24.52;;;10.98;;
42092;SDS011;28974;50.316;18.960;2023-05-10T02:13:51;18.15;;;8.38;;
42092;SDS011;28974;50.316;18.960;2023-05-10T02:25:51;31.33;;;9.50;;
42092;SDS011;28974;50.316;18.960;2023-05-10T02:37:54;18.73;;;9.43;;
42092;SDS011;28974;50.316;18.960;2023-05-10T02:49:57;27.70;;;10.15;;
42092;SDS011;28974;50.316;18.960;2023-05-10T03:01:57;28.92;;;11.38;;
42092;SDS011;28974;50.316;18.960;2023-05-10T03:26:38;36.42;;;11.60;;
42092;SDS011;28974;50.316;18.960;2023-05-10T03:38:46;27.50;;;11.02;;
42092;SDS011;28974;50.316;18.960;2023-05-10T03:50:47;35.88;;;13.05;;
42092;SDS011;28974;50.316;18.960;2023-05-10T04:02:49;35.10;;;11.30;;
42092;SDS011;28974;50.316;18.960;2023-05-10T04:14:53;27.33;;;10.32;;
42092;SDS011;28974;50.316;18.960;2023-05-10T04:26:53;19.98;;;10.40;;
42092;SDS011;28974;50.316;18.960;2023-05-10T04:38:54;22.60;;;10.65;;
42092;SDS011;28974;50.316;18.960;2023-05-10T04:50:54;23.95;;;11.95;;
42092;SDS011;28974;50.316;18.960;2023-05-10T05:02:55;30.13;;;11.50;;
42092;SDS011;28974;50.316;18.960;2023-05-10T05:14:55;27.65;;;11.48;;
42092;SDS011;28974;50.316;18.960;2023-05-10T05:26:56;32.28;;;11.02;;
42092;SDS011;28974;50.316;18.960;2023-05-10T05:38:56;29.63;;;10.85;;
42092;SDS011;28974;50.316;18.960;2023-05-10T05:50:57;24.40;;;9.37;;
42092;SDS011;28974;50.316;18.960;2023-05-10T06:02:57;23.13;;;8.82;;
42092;SDS011;28974;50.316;18.960;2023-05-10T06:14:58;19.05;;;7.85;;
42092;SDS011;28974;50.316;18.960;2023-05-10T06:26:58;27.13;;;7.80;;
42092;SDS011;28974;50.316;18.960;2023-05-10T06:39:00;19.70;;;7.82;;
42092;SDS011;28974;50.316;18.960;2023-05-10T06:51:01;9.68;;;5.32;;
42092;SDS011;28974;50.316;18.960;2023-05-10T07:03:01;13.45;;;6.00;;
42092;SDS011;28974;50.316;18.960;2023-05-10T07:15:01;12.52;;;6.13;;
42092;SDS011;28974;50.316;18.960;2023-05-10T07:27:02;10.77;;;6.00;;
42092;SDS011;28974;50.316;18.960;2023-05-10T07:39:02;12.40;;;5.47;;
42092;SDS011;28974;50.316;18.960;2023-05-10T07:51:03;12.70;;;5.38;;
42092;SDS011;28974;50.316;18.960;2023-05-10T08:03:03;9.82;;;3.47;;
42092;SDS011;28974;50.316;18.960;2023-05-10T08:15:03;4.68;;;3.30;;
42092;SDS011;28974;50.316;18.960;2023-05-10T08:27:04;3.65;;;2.90;;
42092;SDS011;28974;50.316;18.960;2023-05-10T08:39:05;13.85;;;3.10;;
42092;SDS011;28974;50.316;18.960;2023-05-10T08:51:06;11.82;;;3.20;;
42092;SDS011;28974;50.316;18.960;2023-05-10T09:03:08;8.55;;;2.88;;
42092;SDS011;28974;50.316;18.960;2023-05-10T09:15:09;10.37;;;3.80;;
42092;SDS011;28974;50.316;18.960;2023-05-10T09:27:09;9.57;;;2.47;;
42092;SDS011;28974;50.316;18.960;2023-05-10T09:39:10;6.82;;;3.58;;
42092;SDS011;28974;50.316;18.960;2023-05-10T09:51:15;10.65;;;3.78;;
42092;SDS011;28974;50.316;18.960;2023-05-10T10:03:20;10.90;;;3.60;;
42092;SDS011;28974;50.316;18.960;2023-05-10T10:15:21;7.72;;;3.40;;
42092;SDS011;28974;50.316;18.960;2023-05-10T10:39:47;7.22;;;3.38;;
42092;SDS011;28974;50.316;18.960;2023-05-10T11:16:14;11.88;;;4.07;;
42092;SDS011;28974;50.316;18.960;2023-05-10T11:28:16;9.18;;;3.30;;
42092;SDS011;28974;50.316;18.960;2023-05-10T11:40:16;5.65;;;2.92;;
42092;SDS011;28974;50.316;18.960;2023-05-10T11:52:17;10.90;;;4.18;;
42092;SDS011;28974;50.316;18.960;2023-05-10T12:04:18;11.77;;;2.88;;
42092;SDS011;28974;50.316;18.960;2023-05-10T12:16:19;8.02;;;3.60;;
42092;SDS011;28974;50.316;18.960;2023-05-10T12:28:20;7.38;;;3.03;;
42092;SDS011;28974;50.316;18.960;2023-05-10T12:40:21;4.78;;;3.20;;
42092;SDS011;28974;50.316;18.960;2023-05-10T12:52:21;8.70;;;3.45;;
42092;SDS011;28974;50.316;18.960;2023-05-10T13:04:21;6.30;;;3.15;;
42092;SDS011;28974;50.316;18.960;2023-05-10T13:16:22;5.72;;;2.83;;
42092;SDS011;28974;50.316;18.960;2023-05-10T13:28:22;4.38;;;2.95;;
42092;SDS011;28974;50.316;18.960;2023-05-10T13:40:23;4.70;;;2.60;;
42092;SDS011;28974;50.316;18.960;2023-05-10T13:52:23;12.15;;;3.05;;
42092;SDS011;28974;50.316;18.960;2023-05-10T14:04:24;7.57;;;3.28;;
42092;SDS011;28974;50.316;18.960;2023-05-10T14:16:24;5.20;;;3.33;;
42092;SDS011;28974;50.316;18.960;2023-05-10T14:28:25;7.78;;;2.92;;
42092;SDS011;28974;50.316;18.960;2023-05-10T14:40:25;9.13;;;3.42;;
42092;SDS011;28974;50.316;18.960;2023-05-10T14:52:26;8.23;;;3.20;;
42092;SDS011;28974;50.316;18.960;2023-05-10T15:04:26;6.63;;;3.33;;
42092;SDS011;28974;50.316;18.960;2023-05-10T15:16:27;13.63;;;5.30;;
42092;SDS011;28974;50.316;18.960;2023-05-10T15:28:28;9.88;;;3.20;;
42092;SDS011;28974;50.316;18.960;2023-05-10T15:40:28;6.78;;;3.85;;
42092;SDS011;28974;50.316;18.960;2023-05-10T15:52:28;20.02;;;9.18;;
42092;SDS011;28974;50.316;18.960;2023-05-10T16:04:29;11.90;;;3.72;;
42092;SDS011;28974;50.316;18.960;2023-05-10T16:16:29;12.50;;;4.60;;
42092;SDS011;28974;50.316;18.960;2023-05-10T16:28:30;12.05;;;4.28;;
42092;SDS011;28974;50.316;18.960;2023-05-10T16:40:31;7.30;;;3.73;;
42092;SDS011;28974;50.316;18.960;2023-05-10T16:52:32;7.25;;;3.72;;
42092;SDS011;28974;50.316;18.960;2023-05-10T17:04:33;7.45;;;4.18;;
42092;SDS011;28974;50.316;18.960;2023-05-10T17:16:33;12.70;;;3.93;;
42092;SDS011;28974;50.316;18.960;2023-05-10T17:28:34;18.23;;;4.50;;
42092;SDS011;28974;50.316;18.960;2023-05-10T17:40:35;11.95;;;3.80;;
42092;SDS011;28974;50.316;18.960;2023-05-10T17:52:35;9.93;;;4.00;;
42092;SDS011;28974;50.316;18.960;2023-05-10T18:04:38;15.68;;;5.20;;
42092;SDS011;28974;50.316;18.960;2023-05-10T18:16:38;15.20;;;4.47;;
42092;SDS011;28974;50.316;18.960;2023-05-10T18:28:39;16.05;;;5.22;;
42092;SDS011;28974;50.316;18.960;2023-05-10T18:40:39;12.18;;;4.95;;
42092;SDS011;28974;50.316;18.960;2023-05-10T18:52:40;13.88;;;5.00;;
42092;SDS011;28974;50.316;18.960;2023-05-10T19:04:42;14.00;;;5.30;;
42092;SDS011;28974;50.316;18.960;2023-05-10T19:16:42;13.43;;;5.90;;
42092;SDS011;28974;50.316;18.960;2023-05-10T19:28:43;12.60;;;5.88;;
42092;SDS011;28974;50.316;18.960;2023-05-10T19:40:43;14.07;;;5.20;;
42092;SDS011;28974;50.316;18.960;2023-05-10T19:52:44;17.63;;;6.15;;
42092;SDS011;28974;50.316;18.960;2023-05-10T20:04:44;10.23;;;6.05;;
42092;SDS011;28974;50.316;18.960;2023-05-10T20:16:45;14.98;;;6.28;;
42092;SDS011;28974;50.316;18.960;2023-05-10T20:28:45;13.18;;;5.80;;
42092;SDS011;28974;50.316;18.960;2023-05-10T20:40:45;16.77;;;6.85;;
42092;SDS011;28974;50.316;18.960;2023-05-10T20:52:47;20.48;;;6.88;;
42092;SDS011;28974;50.316;18.960;2023-05-10T21:04:51;14.63;;;6.43;;
42092;SDS011;28974;50.316;18.960;2023-05-10T21:16:51;12.32;;;5.53;;
42092;SDS011;28974;50.316;18.960;2023-05-10T21:28:52;16.38;;;6.72;;
42092;SDS011;28974;50.316;18.960;2023-05-10T21:40:52;14.65;;;5.72;;
42092;SDS011;28974;50.316;18.960;2023-05-10T21:52:53;19.95;;;7.78;;
42092;SDS011;28974;50.316;18.960;2023-05-10T22:04:53;15.60;;;6.03;;
42092;SDS011;28974;50.316;18.960;2023-05-10T22:16:53;18.35;;;6.72;;
42092;SDS011;28974;50.316;18.960;2023-05-10T22:28:54;12.27;;;6.50;;
42092;SDS011;28974;50.316;18.960;2023-05-10T22:40:54;22.55;;;7.70;;
42092;SDS011;28974;50.316;18.960;2023-05-10T22:52:55;19.10;;;7.18;;
42092;SDS011;28974;50.316;18.960;2023-05-10T23:04:55;22.23;;;7.80;;
42092;SDS011;28974;50.316;18.960;2023-05-10T23:16:55;20.30;;;7.60;;
42092;SDS011;28974;50.316;18.960;2023-05-10T23:28:56;17.75;;;7.22;;
42092;SDS011;28974;50.316;18.960;2023-05-10T23:40:56;19.42;;;7.75;;
42092;SDS011;28974;50.316;18.960;2023-05-10T23:52:57;22.05;;;8.80;;
